createdAt,value
2019-02-09T00:00:56.477Z,1.50
2019-02-09T00:03:24.878Z,1.50
2019-02-09T00:05:53.054Z,1.50
2019-02-09T00:08:21.110Z,1.60
2019-02-09T00:10:49.212Z,1.60
2019-02-09T00:13:17.270Z,1.60
2019-02-09T00:15:45.337Z,1.70
2019-02-09T00:18:13.411Z,1.70
2019-02-09T00:20:41.502Z,1.70
2019-02-09T00:23:09.573Z,1.80
2019-02-09T00:25:37.786Z,1.80
2019-02-09T00:28:06.150Z,1.80
2019-02-09T00:30:34.502Z,1.80
2019-02-09T00:33:03.510Z,1.80
2019-02-09T00:35:31.775Z,1.90
2019-02-09T00:37:59.902Z,1.90
2019-02-09T00:40:28.179Z,1.90
2019-02-09T00:42:56.474Z,1.90
2019-02-09T00:45:25.006Z,1.90
2019-02-09T00:47:53.085Z,1.90
2019-02-09T00:50:21.601Z,1.90
2019-02-09T00:52:49.662Z,2.00
2019-02-09T00:55:18.518Z,2.00
2019-02-09T00:57:46.485Z,2.00
2019-02-09T01:00:24.383Z,2.00
2019-02-09T01:02:52.862Z,2.00
2019-02-09T01:05:23.726Z,2.00
2019-02-09T01:07:51.818Z,2.00
2019-02-09T01:10:20.401Z,2.10
2019-02-09T01:12:48.470Z,2.10
2019-02-09T01:15:17.239Z,2.10
2019-02-09T01:17:45.314Z,2.10
2019-02-09T01:20:19.171Z,2.10
2019-02-09T01:22:47.161Z,2.10
2019-02-09T01:25:15.426Z,2.10
2019-02-09T01:27:43.435Z,2.10
2019-02-09T01:30:14.461Z,2.10
2019-02-09T01:32:42.533Z,2.10
2019-02-09T01:35:13.140Z,2.20
2019-02-09T01:37:41.524Z,2.20
2019-02-09T01:40:12.371Z,2.20
2019-02-09T01:42:40.865Z,2.20
2019-02-09T01:45:11.565Z,2.20
2019-02-09T01:47:39.937Z,2.20
2019-02-09T01:50:09.774Z,2.20
2019-02-09T01:52:37.846Z,2.20
2019-02-09T01:55:06.625Z,2.30
2019-02-09T01:57:34.597Z,2.30
2019-02-09T02:00:10.619Z,2.30
2019-02-09T02:02:38.037Z,2.30
2019-02-09T02:05:07.046Z,2.30
2019-02-09T02:07:35.202Z,2.30
2019-02-09T02:10:05.269Z,2.30
2019-02-09T02:12:33.646Z,2.30
2019-02-09T02:15:01.747Z,2.30
2019-02-09T02:17:29.746Z,2.30
2019-02-09T02:19:58.014Z,2.30
2019-02-09T02:22:26.165Z,2.30
2019-02-09T02:24:54.215Z,2.30
2019-02-09T02:27:22.482Z,2.30
2019-02-09T02:29:50.657Z,2.40
2019-02-09T02:32:19.961Z,2.40
2019-02-09T02:34:48.310Z,2.40
2019-02-09T02:37:16.372Z,2.40
2019-02-09T02:39:44.442Z,2.40
2019-02-09T02:42:12.532Z,2.40
2019-02-09T02:44:40.507Z,2.40
2019-02-09T02:47:08.688Z,2.40
2019-02-09T02:49:37.100Z,2.40
2019-02-09T02:52:05.174Z,2.40
2019-02-09T02:54:33.438Z,2.40
2019-02-09T02:57:01.617Z,2.40
2019-02-09T02:59:29.926Z,2.40
2019-02-09T03:01:58.029Z,2.40
2019-02-09T03:04:26.306Z,2.40
2019-02-09T03:06:54.378Z,2.40
2019-02-09T03:09:22.466Z,2.40
2019-02-09T03:11:50.532Z,2.40
2019-02-09T03:14:18.610Z,2.40
2019-02-09T03:16:46.675Z,2.40
2019-02-09T03:19:19.219Z,2.40
2019-02-09T03:21:47.730Z,2.40
2019-02-09T03:24:15.827Z,2.40
2019-02-09T03:26:43.913Z,2.40
2019-02-09T03:29:11.983Z,2.40
2019-02-09T03:31:40.081Z,2.40
2019-02-09T03:34:08.118Z,2.40
2019-02-09T03:36:36.258Z,2.40
2019-02-09T03:39:06.514Z,2.40
2019-02-09T03:41:34.827Z,2.40
2019-02-09T03:44:02.821Z,2.40
2019-02-09T03:46:30.890Z,2.40
2019-02-09T03:48:58.948Z,2.40
2019-02-09T03:51:27.155Z,2.40
2019-02-09T03:53:55.223Z,2.40
2019-02-09T03:56:23.510Z,2.40
2019-02-09T03:58:51.618Z,2.40
2019-02-09T04:01:19.695Z,2.40
2019-02-09T04:03:47.813Z,2.40
2019-02-09T04:06:16.069Z,2.40
2019-02-09T04:08:44.150Z,2.40
2019-02-09T04:11:12.216Z,2.40
2019-02-09T04:13:40.345Z,2.40
2019-02-09T04:16:08.438Z,2.40
2019-02-09T04:18:36.449Z,2.40
2019-02-09T04:21:04.856Z,2.40
2019-02-09T04:23:33.201Z,2.40
2019-02-09T04:26:01.271Z,2.40
2019-02-09T04:28:29.414Z,2.40
2019-02-09T04:31:05.317Z,2.40
2019-02-09T04:33:27.252Z,2.40
2019-02-09T04:35:55.610Z,2.40
2019-02-09T04:38:23.779Z,2.40
2019-02-09T04:40:51.901Z,2.40
2019-02-09T04:43:20.157Z,2.40
2019-02-09T04:45:48.314Z,2.40
2019-02-09T04:48:16.372Z,2.50
2019-02-09T04:50:44.463Z,2.50
2019-02-09T04:53:12.414Z,2.50
2019-02-09T04:55:40.602Z,2.50
2019-02-09T04:58:08.574Z,2.50
2019-02-09T05:00:36.642Z,2.50
2019-02-09T05:03:05.246Z,2.50
2019-02-09T05:05:33.710Z,2.50
2019-02-09T05:08:01.814Z,2.50
2019-02-09T05:10:29.917Z,2.50
2019-02-09T05:12:57.981Z,2.50
2019-02-09T05:15:26.166Z,2.50
2019-02-09T05:17:54.406Z,2.50
2019-02-09T05:20:24.602Z,2.50
2019-02-09T05:22:53.354Z,2.50
2019-02-09T05:25:21.447Z,2.50
2019-02-09T05:27:49.634Z,2.50
2019-02-09T05:30:19.850Z,2.50
2019-02-09T05:32:48.001Z,2.50
2019-02-09T05:35:16.095Z,2.50
2019-02-09T05:37:44.149Z,2.50
2019-02-09T05:40:14.291Z,2.50
2019-02-09T05:42:42.460Z,2.50
2019-02-09T05:45:13.598Z,2.60
2019-02-09T05:47:41.678Z,2.60
2019-02-09T05:50:11.238Z,2.60
2019-02-09T05:52:39.407Z,2.60
2019-02-09T05:55:08.038Z,2.60
2019-02-09T05:57:36.535Z,2.60
2019-02-09T06:00:06.624Z,2.60
2019-02-09T06:02:34.619Z,2.60
2019-02-09T06:05:03.788Z,2.60
2019-02-09T06:07:32.053Z,2.60
2019-02-09T06:10:00.223Z,2.60
2019-02-09T06:12:28.320Z,2.60
2019-02-09T06:14:56.417Z,2.60
2019-02-09T06:17:24.702Z,2.60
2019-02-09T06:19:52.789Z,2.60
2019-02-09T06:22:20.877Z,2.60
2019-02-09T06:24:49.160Z,2.60
2019-02-09T06:27:17.243Z,2.60
2019-02-09T06:29:45.315Z,2.60
2019-02-09T06:32:13.406Z,2.60
2019-02-09T06:34:41.531Z,2.60
2019-02-09T06:37:09.606Z,2.60
2019-02-09T06:39:40.390Z,2.60
2019-02-09T06:42:08.487Z,2.60
2019-02-09T06:44:36.478Z,2.60
2019-02-09T06:47:04.570Z,2.60
2019-02-09T06:49:32.621Z,2.60
2019-02-09T06:52:00.701Z,2.60
2019-02-09T06:54:28.882Z,2.60
2019-02-09T06:56:57.150Z,2.60
2019-02-09T06:59:25.261Z,2.60
2019-02-09T07:01:53.346Z,2.60
2019-02-09T07:04:21.373Z,2.60
2019-02-09T07:06:49.454Z,2.60
2019-02-09T07:09:17.535Z,2.60
2019-02-09T07:11:45.601Z,2.60
2019-02-09T07:14:13.766Z,2.60
2019-02-09T07:16:42.098Z,2.60
2019-02-09T07:19:10.069Z,2.60
2019-02-09T07:21:38.257Z,2.60
2019-02-09T07:24:06.857Z,2.60
2019-02-09T07:26:34.968Z,2.60
2019-02-09T07:29:03.251Z,2.60
2019-02-09T07:31:31.430Z,2.60
2019-02-09T07:33:59.534Z,2.60
2019-02-09T07:36:27.906Z,2.60
2019-02-09T07:38:55.910Z,2.60
2019-02-09T07:41:24.046Z,2.60
2019-02-09T07:43:52.061Z,1.70
2019-02-09T07:46:20.161Z,2.70
2019-02-09T07:48:48.128Z,2.70
2019-02-09T07:51:16.198Z,2.70
2019-02-09T07:53:44.293Z,2.70
2019-02-09T07:56:12.439Z,2.70
2019-02-09T07:58:40.570Z,2.70
2019-02-09T08:01:08.555Z,2.80
2019-02-09T08:03:36.954Z,2.80
2019-02-09T08:06:05.157Z,2.80
2019-02-09T08:08:33.266Z,2.80
2019-02-09T08:11:08.798Z,2.80
2019-02-09T08:13:32.450Z,2.80
2019-02-09T08:16:00.498Z,2.90
2019-02-09T08:18:28.622Z,2.90
2019-02-09T08:20:56.657Z,2.90
2019-02-09T08:23:25.002Z,2.90
2019-02-09T08:25:53.038Z,2.90
2019-02-09T08:28:21.071Z,3.00
2019-02-09T08:30:49.485Z,3.00
2019-02-09T08:33:17.618Z,3.00
2019-02-09T08:35:45.778Z,3.00
2019-02-09T08:38:14.207Z,3.00
2019-02-09T20:18:07.426Z,2.60
2019-02-09T20:20:36.580Z,2.60
2019-02-09T20:23:05.610Z,2.50
2019-02-09T20:25:34.031Z,2.50
2019-02-09T20:28:02.036Z,2.50
2019-02-09T20:30:34.298Z,2.50
2019-02-09T20:35:42.422Z,2.50
2019-02-09T20:40:41.131Z,2.40
2019-02-09T20:43:11.678Z,2.40
2019-02-09T20:45:39.987Z,2.30
2019-02-09T20:48:11.389Z,2.30
2019-02-09T20:50:39.608Z,2.20
2019-02-09T20:53:07.662Z,2.30
2019-02-09T20:55:36.063Z,2.30
2019-02-09T20:58:06.018Z,2.20
2019-02-09T21:00:34.008Z,2.20
2019-02-09T21:03:02.083Z,2.30
2019-02-09T21:05:36.000Z,2.20
2019-02-09T21:08:00.105Z,2.20
2019-02-09T21:10:29.130Z,2.20
2019-02-09T21:12:57.143Z,2.10
2019-02-09T21:15:26.405Z,2.10
2019-02-09T21:17:54.910Z,2.00
2019-02-09T21:20:23.188Z,1.90
2019-02-09T21:22:51.274Z,1.80
2019-02-09T21:25:21.958Z,1.70
2019-02-09T21:27:51.379Z,1.70
2019-02-09T21:30:19.547Z,1.60
2019-02-09T21:32:48.238Z,1.60
2019-02-09T21:35:16.622Z,1.60
2019-02-09T21:37:45.013Z,1.50
2019-02-09T21:40:18.274Z,1.50
2019-02-09T21:42:46.336Z,1.50
2019-02-09T21:45:15.710Z,1.50
2019-02-09T21:47:43.790Z,1.50
2019-02-09T21:50:17.594Z,1.60
2019-02-09T21:52:45.571Z,1.60
2019-02-09T21:55:16.058Z,1.60
2019-02-09T21:57:44.131Z,1.70
2019-02-09T22:00:23.966Z,1.70
2019-02-09T22:02:52.169Z,1.80
2019-02-09T22:05:20.492Z,1.90
2019-02-09T22:10:18.953Z,2.00
2019-02-09T22:12:46.982Z,2.10
2019-02-09T22:15:19.078Z,2.10
2019-02-09T22:17:47.207Z,2.20
2019-02-09T22:20:15.947Z,2.20
2019-02-09T22:22:43.922Z,2.20
2019-02-09T22:25:16.394Z,2.30
2019-02-09T22:27:45.178Z,2.30
2019-02-09T22:30:20.249Z,2.30
2019-02-09T22:32:48.478Z,2.30
2019-02-09T22:35:17.542Z,2.30
2019-02-09T22:37:45.578Z,2.30
2019-02-09T22:40:18.821Z,2.30
2019-02-09T22:42:46.885Z,2.30
2019-02-09T22:45:15.874Z,2.40
2019-02-09T22:47:44.053Z,2.40
2019-02-09T22:50:26.361Z,2.40
2019-02-09T22:52:54.638Z,2.40
2019-02-09T22:55:23.348Z,2.40
2019-02-09T22:57:51.522Z,2.40
2019-02-09T23:00:46.928Z,2.40
2019-02-09T23:03:15.342Z,2.40
2019-02-09T23:06:43.620Z,2.50
2019-02-09T23:09:18.317Z,2.50
2019-02-09T23:11:46.481Z,2.50
2019-02-09T23:14:14.542Z,2.50
2019-02-09T23:16:42.606Z,2.50
2019-02-09T23:19:13.919Z,2.50
2019-02-09T23:21:42.195Z,2.50
2019-02-09T23:24:10.363Z,2.40
2019-02-09T23:26:44.311Z,2.40
2019-02-09T23:29:12.464Z,2.40
2019-02-09T23:31:40.343Z,2.40
2019-02-09T23:34:08.688Z,2.40
2019-02-09T23:36:39.149Z,2.40
2019-02-09T23:39:07.200Z,2.40
2019-02-09T23:41:35.311Z,2.40
2019-02-09T23:44:03.346Z,2.40
2019-02-09T23:46:31.536Z,2.40
2019-02-09T23:48:59.886Z,2.30
2019-02-09T23:51:27.972Z,2.30
2019-02-09T23:53:55.895Z,2.30
2019-02-09T23:56:26.328Z,2.30
2019-02-09T23:58:54.256Z,2.30
